createdAt,value
2018-04-22T00:00:49.009Z,19.37
2018-04-22T00:03:15.118Z,19.67
2018-04-22T00:05:41.313Z,19.27
2018-04-22T00:08:07.434Z,19.67
2018-04-22T00:10:33.563Z,20.57
2018-04-22T00:12:59.651Z,18.67
2018-04-22T00:15:26.662Z,18.70
2018-04-22T00:17:52.835Z,17.23
2018-04-22T00:20:19.015Z,19.10
2018-04-22T00:22:45.099Z,21.50
2018-04-22T00:25:11.234Z,20.30
2018-04-22T00:27:37.380Z,18.80
2018-04-22T00:30:03.522Z,20.37
2018-04-22T00:32:29.598Z,20.40
2018-04-22T00:34:55.727Z,18.40
2018-04-22T00:37:21.811Z,19.03
2018-04-22T00:39:47.891Z,20.53
2018-04-22T00:42:14.042Z,20.20
2018-04-22T00:44:40.140Z,22.93
2018-04-22T00:47:06.276Z,21.50
2018-04-22T00:49:32.367Z,21.40
2018-04-22T00:51:58.643Z,20.27
2018-04-22T00:54:25.499Z,20.00
2018-04-22T00:56:52.331Z,22.40
2018-04-22T00:59:18.441Z,22.30
2018-04-22T01:01:44.566Z,19.80
2018-04-22T01:04:10.665Z,20.37
2018-04-22T01:06:37.472Z,21.30
2018-04-22T01:09:04.585Z,22.17
2018-04-22T01:11:31.462Z,21.87
2018-04-22T01:13:57.544Z,22.40
2018-04-22T01:16:23.649Z,23.00
2018-04-22T01:18:49.702Z,24.90
2018-04-22T01:21:15.797Z,25.20
2018-04-22T01:23:42.636Z,24.80
2018-04-22T01:26:09.537Z,22.13
2018-04-22T01:28:35.621Z,24.53
2018-04-22T01:31:01.753Z,26.10
2018-04-22T01:33:27.835Z,28.27
2018-04-22T01:35:53.936Z,28.20
2018-04-22T01:38:20.077Z,27.30
2018-04-22T01:40:46.181Z,27.47
2018-04-22T01:43:12.290Z,29.07
2018-04-22T01:45:38.362Z,29.93
2018-04-22T01:48:04.472Z,30.40
2018-04-22T01:50:30.533Z,29.10
2018-04-22T01:52:56.654Z,28.30
2018-04-22T01:55:22.741Z,26.27
2018-04-22T01:57:48.836Z,28.57
2018-04-22T02:00:14.948Z,28.00
2018-04-22T02:02:41.014Z,27.73
2018-04-22T02:05:07.134Z,28.47
2018-04-22T02:07:33.260Z,28.63
2018-04-22T02:09:59.377Z,30.50
2018-04-22T02:12:26.205Z,27.90
2018-04-22T02:14:52.273Z,28.67
2018-04-22T02:17:19.093Z,26.23
2018-04-22T02:19:45.173Z,27.40
2018-04-22T02:22:12.009Z,28.23
2018-04-22T02:24:38.081Z,29.80
2018-04-22T02:27:04.184Z,28.37
2018-04-22T02:29:30.245Z,27.53
2018-04-22T02:31:57.096Z,29.03
2018-04-22T02:34:23.170Z,28.90
2018-04-22T02:36:49.244Z,26.77
2018-04-22T02:39:15.341Z,27.83
2018-04-22T02:41:41.474Z,29.20
2018-04-22T02:44:07.561Z,29.40
2018-04-22T02:46:33.641Z,29.00
2018-04-22T02:48:59.736Z,27.73
2018-04-22T02:51:25.825Z,27.43
2018-04-22T02:53:52.689Z,26.60
2018-04-22T02:56:18.757Z,27.60
2018-04-22T02:58:44.854Z,27.73
2018-04-22T03:01:11.048Z,28.13
2018-04-22T03:03:37.130Z,28.67
2018-04-22T03:06:03.208Z,29.90
2018-04-22T03:08:29.304Z,28.50
2018-04-22T03:10:55.424Z,27.77
2018-04-22T03:13:21.528Z,29.37
2018-04-22T03:15:47.600Z,29.00
2018-04-22T03:18:13.690Z,29.37
2018-04-22T03:20:39.760Z,29.40
2018-04-22T03:23:06.600Z,27.83
2018-04-22T03:25:32.682Z,27.40
2018-04-22T03:27:58.789Z,29.40
2018-04-22T03:30:25.595Z,27.27
2018-04-22T03:32:51.704Z,28.37
2018-04-22T03:35:17.765Z,28.47
2018-04-22T03:37:43.837Z,27.47
2018-04-22T03:40:09.937Z,28.77
2018-04-22T03:42:36.067Z,29.80
2018-04-22T03:45:02.199Z,28.47
2018-04-22T03:47:28.265Z,26.93
2018-04-22T03:49:54.365Z,27.83
2018-04-22T03:52:20.444Z,27.10
2018-04-22T03:54:46.537Z,28.30
2018-04-22T03:57:12.632Z,28.03
2018-04-22T03:59:38.714Z,30.10
2018-04-22T04:02:05.522Z,28.40
2018-04-22T04:04:32.356Z,28.47
2018-04-22T04:06:58.415Z,27.87
2018-04-22T04:09:24.476Z,28.93
2018-04-22T04:11:50.565Z,29.87
2018-04-22T04:14:16.624Z,29.40
2018-04-22T04:16:42.704Z,31.83
2018-04-22T04:22:27.761Z,30.57
2018-04-22T04:28:04.681Z,32.57
2018-04-22T04:30:30.741Z,28.90
2018-04-22T04:32:56.854Z,29.80
2018-04-22T04:35:22.928Z,27.80
2018-04-22T04:37:49.038Z,28.20
2018-04-22T04:40:15.096Z,27.87
2018-04-22T04:42:41.177Z,29.20
2018-04-22T04:45:08.016Z,28.47
2018-04-22T04:47:34.081Z,28.00
2018-04-22T04:50:00.195Z,28.90
2018-04-22T04:52:27.003Z,27.83
2018-04-22T04:54:53.120Z,26.87
2018-04-22T04:57:19.245Z,28.27
2018-04-22T04:59:45.409Z,26.93
2018-04-22T05:02:11.474Z,27.20
2018-04-22T05:04:37.541Z,26.60
2018-04-22T05:07:04.381Z,26.83
2018-04-22T05:09:30.441Z,29.23
2018-04-22T05:11:57.273Z,26.70
2018-04-22T05:14:23.362Z,25.50
2018-04-22T05:16:49.450Z,24.90
2018-04-22T05:19:15.521Z,26.70
2018-04-22T05:21:41.590Z,26.60
2018-04-22T05:24:07.712Z,26.33
2018-04-22T05:26:33.766Z,25.43
2018-04-22T05:28:59.862Z,25.30
2018-04-22T05:31:25.928Z,25.03
2018-04-22T05:33:52.018Z,26.17
2018-04-22T05:36:18.812Z,26.03
2018-04-22T05:38:44.960Z,26.10
2018-04-22T05:41:11.032Z,25.27
2018-04-22T05:43:37.133Z,25.13
2018-04-22T05:46:03.258Z,24.83
2018-04-22T05:48:29.337Z,28.40
2018-04-22T05:50:55.412Z,26.37
2018-04-22T05:53:22.274Z,25.63
2018-04-22T05:55:49.113Z,27.77
2018-04-22T05:58:15.929Z,28.10
2018-04-22T06:00:42.041Z,26.53
2018-04-22T06:03:08.138Z,27.67
2018-04-22T06:05:34.248Z,28.47
2018-04-22T06:08:00.333Z,28.50
2018-04-22T06:10:27.149Z,29.13
2018-04-22T06:12:53.273Z,28.70
2018-04-22T06:15:19.349Z,29.27
2018-04-22T06:17:46.157Z,30.70
2018-04-22T06:20:12.253Z,30.30
2018-04-22T06:22:39.070Z,30.40
2018-04-22T06:25:05.206Z,29.57
2018-04-22T06:27:31.283Z,29.37
2018-04-22T06:29:58.109Z,32.43
2018-04-22T06:32:24.217Z,29.17
2018-04-22T06:34:50.297Z,30.07
2018-04-22T06:37:16.412Z,30.87
2018-04-22T06:39:42.479Z,30.53
2018-04-22T06:42:09.347Z,30.30
2018-04-22T06:44:36.169Z,30.10
2018-04-22T06:47:02.259Z,29.37
2018-04-22T06:49:28.336Z,29.80
2018-04-22T06:51:54.434Z,30.57
2018-04-22T06:54:20.512Z,30.67
2018-04-22T06:56:46.625Z,30.80
2018-04-22T06:59:12.772Z,31.30
2018-04-22T07:01:38.844Z,32.27
2018-04-22T07:04:04.957Z,30.80
2018-04-22T07:06:31.039Z,30.13
2018-04-22T07:08:57.891Z,30.87
2018-04-22T07:11:24.763Z,31.60
2018-04-22T07:13:50.885Z,31.83
2018-04-22T07:16:17.701Z,29.30
2018-04-22T07:18:43.790Z,29.80
2018-04-22T07:21:10.638Z,29.10
2018-04-22T07:23:37.462Z,28.63
2018-04-22T07:26:03.564Z,29.67
2018-04-22T07:28:29.669Z,30.43
2018-04-22T07:30:56.487Z,29.50
2018-04-22T07:33:22.568Z,29.17
2018-04-22T07:35:49.427Z,29.97
2018-04-22T07:38:16.245Z,30.00
2018-04-22T07:40:42.520Z,30.33
2018-04-22T07:43:08.602Z,30.10
2018-04-22T07:45:34.716Z,30.90
2018-04-22T07:48:00.850Z,31.07
2018-04-22T07:50:26.969Z,31.30
2018-04-22T07:52:53.861Z,32.20
2018-04-22T07:55:19.940Z,31.10
2018-04-22T07:57:46.042Z,30.73
2018-04-22T08:00:12.128Z,30.27
2018-04-22T08:02:38.224Z,29.40
2018-04-22T08:05:04.342Z,30.20
2018-04-22T08:07:30.454Z,29.07
2018-04-22T08:09:56.557Z,31.07
2018-04-22T08:12:22.662Z,30.80
2018-04-22T08:14:48.759Z,30.30
2018-04-22T08:17:15.592Z,28.30
2018-04-22T08:19:41.697Z,28.87
2018-04-22T08:22:07.854Z,28.90
2018-04-22T08:24:33.981Z,30.23
2018-04-22T08:27:00.053Z,28.03
2018-04-22T08:29:26.168Z,30.00
2018-04-22T08:31:52.242Z,31.43
2018-04-22T08:34:19.188Z,29.50
2018-04-22T08:36:45.361Z,29.60
2018-04-22T08:39:12.225Z,29.67
2018-04-22T08:41:38.321Z,27.43
2018-04-22T08:44:04.415Z,26.90
2018-04-22T08:46:30.497Z,29.00
2018-04-22T08:48:56.578Z,28.77
2018-04-22T08:51:22.750Z,29.10
2018-04-22T08:53:48.838Z,27.87
2018-04-22T08:56:15.641Z,26.97
2018-04-22T08:58:41.772Z,26.07
2018-04-22T09:01:07.868Z,26.90
2018-04-22T09:03:34.765Z,28.37
2018-04-22T09:06:00.901Z,27.30
2018-04-22T09:08:27.001Z,27.30
2018-04-22T09:10:53.861Z,26.47
2018-04-22T09:13:19.919Z,27.90
2018-04-22T09:15:45.988Z,27.40
2018-04-22T09:18:12.089Z,26.47
2018-04-22T09:20:38.189Z,28.57
2018-04-22T09:23:04.305Z,26.90
2018-04-22T09:25:30.449Z,29.07
2018-04-22T09:27:56.544Z,27.40
2018-04-22T09:30:22.678Z,27.23
2018-04-22T09:32:48.760Z,27.20
2018-04-22T09:35:14.878Z,28.70
2018-04-22T09:37:40.946Z,26.77
2018-04-22T09:40:07.100Z,26.37
2018-04-22T09:42:34.213Z,25.90
2018-04-22T09:45:01.429Z,26.90
2018-04-22T09:47:28.314Z,27.83
2018-04-22T09:49:54.590Z,27.33
2018-04-22T09:52:20.718Z,29.77
2018-04-22T09:54:46.801Z,28.83
2018-04-22T09:57:13.019Z,25.53
2018-04-22T09:59:39.105Z,27.37
2018-04-22T10:02:12.004Z,23.67
2018-04-22T10:04:38.898Z,23.13
2018-04-22T10:07:05.000Z,24.70
2018-04-22T10:09:31.834Z,25.33
2018-04-22T10:11:57.919Z,26.10
2018-04-22T10:14:24.032Z,23.47
2018-04-22T10:16:51.041Z,22.00
2018-04-22T10:19:17.136Z,21.93
2018-04-22T10:21:43.224Z,22.40
2018-04-22T10:24:09.330Z,23.10
2018-04-22T10:26:35.399Z,22.23
2018-04-22T10:29:01.476Z,21.83
2018-04-22T10:31:28.325Z,22.90
2018-04-22T10:33:55.133Z,23.03
2018-04-22T10:36:21.251Z,23.57
2018-04-22T10:38:47.351Z,22.90
2018-04-22T10:41:14.201Z,21.40
2018-04-22T10:43:40.396Z,23.37
2018-04-22T10:46:06.472Z,21.20
2018-04-22T10:48:32.569Z,19.60
2018-04-22T10:50:58.646Z,20.53
2018-04-22T10:53:24.753Z,18.17
2018-04-22T10:55:50.826Z,17.30
2018-04-22T10:58:17.030Z,15.90
2018-04-22T11:00:43.102Z,15.80
2018-04-22T11:03:09.192Z,15.60
2018-04-22T11:05:35.282Z,14.63
2018-04-22T11:08:01.490Z,14.63
2018-04-22T11:10:27.604Z,13.43
2018-04-22T11:12:53.702Z,12.47
2018-04-22T11:15:19.752Z,11.97
2018-04-22T11:17:46.642Z,12.33
2018-04-22T11:20:12.733Z,12.80
2018-04-22T11:22:38.897Z,11.80
2018-04-22T11:25:05.801Z,10.57
2018-04-22T11:27:31.888Z,11.67
2018-04-22T11:29:58.770Z,10.03
2018-04-22T11:32:24.882Z,11.30
2018-04-22T11:34:51.760Z,10.60
2018-04-22T11:37:17.868Z,10.07
2018-04-22T11:39:44.760Z,9.23
2018-04-22T11:42:10.821Z,9.60
2018-04-22T11:44:36.929Z,8.03
2018-04-22T11:47:03.028Z,7.90
2018-04-22T11:49:29.219Z,7.60
2018-04-22T11:51:55.332Z,7.00
2018-04-22T11:54:21.502Z,7.10
2018-04-22T11:56:47.591Z,8.67
2018-04-22T11:59:14.493Z,7.77
2018-04-22T12:01:40.607Z,7.80
2018-04-22T12:04:06.713Z,8.00
2018-04-22T12:06:32.919Z,8.50
2018-04-22T12:08:59.080Z,7.77
2018-04-22T12:11:25.287Z,7.80
2018-04-22T12:13:51.368Z,7.50
2018-04-22T12:16:17.465Z,9.10
2018-04-22T12:18:43.558Z,7.80
2018-04-22T12:21:10.397Z,8.07
2018-04-22T12:23:36.487Z,9.40
2018-04-22T12:26:03.324Z,8.60
2018-04-22T12:28:30.155Z,8.97
2018-04-22T12:30:56.248Z,9.10
2018-04-22T12:33:22.399Z,8.97
2018-04-22T12:35:48.485Z,8.80
2018-04-22T12:38:15.321Z,9.10
2018-04-22T12:40:41.410Z,10.20
2018-04-22T12:43:07.503Z,9.70
2018-04-22T12:45:33.593Z,9.23
2018-04-22T12:47:59.698Z,9.10
2018-04-22T12:50:26.521Z,8.80
2018-04-22T12:52:53.364Z,8.33
2018-04-22T12:55:19.485Z,8.47
2018-04-22T12:57:45.625Z,7.83
2018-04-22T13:00:11.685Z,7.73
2018-04-22T13:02:37.805Z,7.77
2018-04-22T13:05:04.644Z,7.47
2018-04-22T13:07:30.758Z,7.27
2018-04-22T13:09:56.913Z,8.10
2018-04-22T13:12:23.009Z,8.07
2018-04-22T13:14:49.098Z,8.37
2018-04-22T13:17:15.197Z,8.10
2018-04-22T13:19:42.067Z,8.37
2018-04-22T13:22:08.137Z,8.10
2018-04-22T13:24:34.252Z,8.00
2018-04-22T13:27:00.355Z,7.80
2018-04-22T13:29:26.551Z,8.80
2018-04-22T13:31:52.613Z,7.97
2018-04-22T13:34:18.710Z,7.93
2018-04-22T13:36:44.820Z,8.20
2018-04-22T13:39:11.673Z,7.80
2018-04-22T13:41:37.749Z,7.60
2018-04-22T13:44:03.811Z,7.73
2018-04-22T13:46:29.980Z,7.03
2018-04-22T13:48:56.080Z,6.20
2018-04-22T13:51:22.178Z,7.20
2018-04-22T13:53:49.113Z,5.73
2018-04-22T13:56:15.218Z,6.57
2018-04-22T13:58:41.276Z,5.67
2018-04-22T14:01:07.359Z,7.43
2018-04-22T14:03:33.462Z,6.53
2018-04-22T14:05:59.649Z,6.07
2018-04-22T14:08:25.739Z,6.60
2018-04-22T14:10:51.845Z,6.33
2018-04-22T14:13:17.941Z,6.53
2018-04-22T14:15:44.022Z,6.10
2018-04-22T14:18:10.099Z,5.97
2018-04-22T14:20:36.352Z,6.70
2018-04-22T14:23:03.177Z,6.30
2018-04-22T14:25:29.385Z,5.80
2018-04-22T14:27:55.483Z,5.73
2018-04-22T14:30:22.325Z,5.60
2018-04-22T14:32:48.431Z,5.60
2018-04-22T14:35:14.557Z,6.90
2018-04-22T14:37:41.397Z,5.47
2018-04-22T14:40:07.532Z,5.13
2018-04-22T14:42:33.637Z,5.03
2018-04-22T14:45:12.033Z,5.23
2018-04-22T14:47:38.100Z,5.00
2018-04-22T14:50:04.196Z,6.13
2018-04-22T14:52:30.308Z,6.17
2018-04-22T14:54:56.410Z,5.77
2018-04-22T14:57:22.494Z,6.37
2018-04-22T14:59:48.602Z,6.33
2018-04-22T15:02:15.478Z,5.50
2018-04-22T15:04:41.585Z,5.50
2018-04-22T15:07:07.761Z,5.70
2018-04-22T15:09:33.907Z,5.20
2018-04-22T15:12:00.013Z,5.27
2018-04-22T15:14:26.816Z,5.00
2018-04-22T15:16:52.916Z,5.20
2018-04-22T15:19:19.837Z,4.67
2018-04-22T15:21:46.408Z,4.60
2018-04-22T15:24:12.610Z,4.53
2018-04-22T15:26:38.796Z,5.23
2018-04-22T15:29:05.600Z,5.10
2018-04-22T15:31:31.695Z,4.67
2018-04-22T15:33:58.567Z,4.70
2018-04-22T15:36:24.729Z,4.67
2018-04-22T15:38:50.870Z,4.40
2018-04-22T15:41:16.940Z,4.43
2018-04-22T15:43:43.029Z,4.60
2018-04-22T15:46:09.102Z,3.90
2018-04-22T15:48:35.184Z,4.67
2018-04-22T15:51:02.013Z,4.50
2018-04-22T15:53:28.070Z,5.13
2018-04-22T15:55:54.945Z,5.00
2018-04-22T15:58:21.045Z,4.30
2018-04-22T16:00:47.116Z,4.73
2018-04-22T16:03:13.326Z,4.70
2018-04-22T16:05:39.437Z,4.77
2018-04-22T16:08:05.528Z,4.97
2018-04-22T16:10:31.688Z,4.60
2018-04-22T16:12:57.784Z,5.20
2018-04-22T16:15:24.664Z,5.10
2018-04-22T16:17:50.736Z,4.80
2018-04-22T16:20:16.801Z,4.20
2018-04-22T16:22:42.884Z,5.00
2018-04-22T16:25:08.966Z,5.10
2018-04-22T16:27:35.069Z,5.40
2018-04-22T16:30:01.161Z,4.60
2018-04-22T16:32:27.358Z,5.07
2018-04-22T16:34:53.429Z,4.93
2018-04-22T16:37:19.525Z,5.30
2018-04-22T16:39:45.629Z,5.50
2018-04-22T16:42:12.469Z,5.30
2018-04-22T16:44:38.605Z,4.83
2018-04-22T16:47:04.709Z,4.97
2018-04-22T16:49:30.804Z,5.20
2018-04-22T16:51:57.638Z,4.60
2018-04-22T16:54:24.493Z,4.90
2018-04-22T16:56:50.625Z,5.20
2018-04-22T16:59:16.706Z,5.10
2018-04-22T17:01:42.769Z,5.80
2018-04-22T17:04:08.872Z,5.10
2018-04-22T17:06:35.703Z,5.87
2018-04-22T17:09:01.896Z,5.23
2018-04-22T17:11:27.989Z,6.33
2018-04-22T17:13:54.847Z,5.20
2018-04-22T17:16:21.725Z,4.93
2018-04-22T17:18:47.786Z,5.03
2018-04-22T17:21:13.847Z,5.03
2018-04-22T17:23:39.973Z,6.00
2018-04-22T17:26:06.095Z,5.60
2018-04-22T17:28:32.165Z,5.07
2018-04-22T17:30:58.300Z,5.87
2018-04-22T17:33:24.373Z,5.43
2018-04-22T17:35:51.205Z,5.00
2018-04-22T17:38:17.320Z,6.40
2018-04-22T17:40:43.425Z,5.70
2018-04-22T17:43:09.485Z,5.37
2018-04-22T17:45:35.573Z,6.50
2018-04-22T17:48:02.539Z,6.07
2018-04-22T17:50:29.376Z,5.90
2018-04-22T17:52:55.465Z,5.53
2018-04-22T17:55:21.605Z,6.20
2018-04-22T17:57:47.709Z,5.17
2018-04-22T18:00:14.622Z,5.40
2018-04-22T18:02:40.729Z,5.43
2018-04-22T18:05:06.800Z,6.70
2018-04-22T18:07:32.912Z,6.70
2018-04-22T18:09:58.978Z,7.80
2018-04-22T18:12:25.062Z,6.00
2018-04-22T18:14:51.941Z,5.83
2018-04-22T18:17:18.030Z,6.30
2018-04-22T18:19:44.169Z,6.57
2018-04-22T18:22:10.253Z,6.30
2018-04-22T18:24:36.321Z,6.30
2018-04-22T18:27:02.459Z,6.83
2018-04-22T18:29:28.569Z,7.07
2018-04-22T18:31:54.634Z,7.07
2018-04-22T18:34:20.737Z,6.50
2018-04-22T18:36:46.900Z,6.90
2018-04-22T18:39:12.989Z,6.47
2018-04-22T18:41:39.800Z,7.07
2018-04-22T18:44:05.929Z,7.80
2018-04-22T18:46:32.033Z,6.90
2018-04-22T18:48:58.144Z,6.97
2018-04-22T18:51:24.220Z,7.17
2018-04-22T18:53:50.332Z,6.90
2018-04-22T18:56:17.174Z,6.43
2018-04-22T18:58:43.245Z,6.40
2018-04-22T19:01:09.336Z,6.40
2018-04-22T19:03:35.453Z,7.40
2018-04-22T19:06:01.516Z,6.97
2018-04-22T19:08:27.670Z,7.37
2018-04-22T19:10:53.834Z,6.73
2018-04-22T19:13:20.768Z,6.67
2018-04-22T19:15:46.905Z,6.17
2018-04-22T19:18:16.919Z,7.60
2018-04-22T19:20:43.300Z,7.37
2018-04-22T19:23:10.115Z,6.80
2018-04-22T19:25:36.232Z,7.03
2018-04-22T19:28:02.339Z,7.30
2018-04-22T19:30:28.485Z,8.13
2018-04-22T19:32:54.586Z,6.60
2018-04-22T19:35:20.677Z,8.03
2018-04-22T19:37:46.761Z,6.80
2018-04-22T19:40:12.994Z,7.00
2018-04-22T19:42:39.069Z,6.93
2018-04-22T19:45:05.137Z,6.60
2018-04-22T19:47:31.240Z,8.40
2018-04-22T19:49:57.365Z,8.70
2018-04-22T19:52:24.205Z,7.87
2018-04-22T19:54:50.387Z,6.93
2018-04-22T19:57:16.480Z,7.30
2018-04-22T19:59:42.551Z,8.70
2018-04-22T20:02:09.465Z,8.10
2018-04-22T20:04:35.551Z,7.10
2018-04-22T20:07:01.619Z,7.33
2018-04-22T20:09:27.708Z,8.73
2018-04-22T20:11:54.528Z,6.90
2018-04-22T20:14:20.637Z,7.87
2018-04-22T20:16:46.718Z,8.00
2018-04-22T20:19:12.902Z,8.50
2018-04-22T20:21:38.984Z,7.93
2018-04-22T20:24:05.188Z,8.20
2018-04-22T20:26:31.293Z,8.27
2018-04-22T20:28:58.124Z,8.00
2018-04-22T20:31:24.206Z,7.83
2018-04-22T20:33:50.328Z,8.80
2018-04-22T20:36:17.203Z,7.67
2018-04-22T20:38:43.279Z,8.23
2018-04-22T20:41:09.382Z,9.13
2018-04-22T20:43:35.530Z,9.00
2018-04-22T20:46:01.625Z,8.60
2018-04-22T20:48:27.700Z,7.80
2018-04-22T20:50:53.812Z,8.80
2018-04-22T20:53:19.973Z,8.90
2018-04-22T20:55:46.113Z,8.20
2018-04-22T20:58:12.236Z,9.37
2018-04-22T21:00:38.400Z,9.60
2018-04-22T21:03:04.529Z,7.53
2018-04-22T21:05:30.599Z,7.77
2018-04-22T21:07:56.705Z,8.97
2018-04-22T21:10:22.866Z,8.90
2018-04-22T21:12:48.964Z,9.77
2018-04-22T21:15:15.121Z,9.00
2018-04-22T21:17:41.192Z,9.00
2018-04-22T21:20:07.287Z,8.47
2018-04-22T21:22:33.433Z,8.83
2018-04-22T21:24:59.532Z,8.40
2018-04-22T21:27:25.652Z,8.37
2018-04-22T21:29:51.713Z,8.93
2018-04-22T21:32:17.885Z,9.00
2018-04-22T21:34:43.941Z,8.13
2018-04-22T21:37:10.022Z,8.03
2018-04-22T21:39:36.115Z,7.67
2018-04-22T21:42:02.261Z,7.77
2018-04-22T21:44:28.337Z,8.37
2018-04-22T21:46:54.516Z,7.23
2018-04-22T21:49:20.643Z,7.23
2018-04-22T21:51:47.475Z,7.80
2018-04-22T21:54:13.541Z,7.37
2018-04-22T21:56:39.696Z,7.10
2018-04-22T21:59:05.832Z,7.17
2018-04-22T22:01:31.937Z,7.30
2018-04-22T22:03:58.815Z,7.30
2018-04-22T22:06:24.932Z,7.10
2018-04-22T22:08:51.766Z,7.93
2018-04-22T22:11:17.835Z,6.90
2018-04-22T22:13:44.698Z,7.70
2018-04-22T22:16:10.773Z,6.90
2018-04-22T22:18:36.912Z,6.73
2018-04-22T22:21:02.999Z,6.33
2018-04-22T22:23:29.829Z,6.17
2018-04-22T22:25:55.911Z,6.63
2018-04-22T22:28:21.993Z,6.60
2018-04-22T22:30:48.070Z,7.03
2018-04-22T22:33:14.884Z,6.83
2018-04-22T22:35:40.965Z,6.80
2018-04-22T22:38:07.054Z,7.17
2018-04-22T22:40:33.140Z,7.37
2018-04-22T22:42:59.973Z,8.30
2018-04-22T22:45:26.055Z,7.13
2018-04-22T22:47:52.865Z,7.40
2018-04-22T22:50:18.968Z,7.47
2018-04-22T22:52:45.039Z,6.60
2018-04-22T22:55:11.129Z,7.10
2018-04-22T22:57:37.197Z,6.77
2018-04-22T23:00:03.292Z,8.27
2018-04-22T23:02:29.408Z,7.77
2018-04-22T23:04:56.233Z,6.47
2018-04-22T23:07:22.304Z,6.50
2018-04-22T23:09:49.186Z,9.30
2018-04-22T23:12:15.304Z,6.47
2018-04-22T23:14:41.383Z,6.43
2018-04-22T23:17:07.449Z,5.90
2018-04-22T23:19:33.534Z,5.70
2018-04-22T23:21:59.606Z,7.23
2018-04-22T23:24:25.708Z,6.83
2018-04-22T23:26:52.533Z,7.00
2018-04-22T23:29:19.417Z,7.00
2018-04-22T23:31:45.504Z,5.70
2018-04-22T23:34:11.622Z,6.40
2018-04-22T23:36:37.713Z,6.87
2018-04-22T23:39:04.539Z,6.90
2018-04-22T23:41:30.736Z,6.47
2018-04-22T23:43:56.813Z,6.50
2018-04-22T23:46:22.905Z,6.63
2018-04-22T23:48:50.109Z,7.50
2018-04-22T23:51:16.204Z,6.73
2018-04-22T23:53:42.275Z,7.03
2018-04-22T23:56:09.101Z,8.10
2018-04-22T23:58:35.181Z,7.17
